createdAt,value
2022-08-25T00:00:40.959Z,20.21
2022-08-25T00:01:40.939Z,20.20
2022-08-25T00:02:40.935Z,20.26
2022-08-25T00:03:40.916Z,20.26
2022-08-25T00:04:40.871Z,20.28
2022-08-25T00:05:40.884Z,20.31
2022-08-25T00:06:40.852Z,20.31
2022-08-25T00:07:40.845Z,20.33
2022-08-25T00:08:40.843Z,20.33
2022-08-25T00:09:40.814Z,20.35
2022-08-25T00:10:40.810Z,20.33
2022-08-25T00:11:40.772Z,20.36
2022-08-25T00:12:40.809Z,20.35
2022-08-25T00:13:40.744Z,20.32
2022-08-25T00:14:40.745Z,20.31
2022-08-25T00:15:40.733Z,20.32
2022-08-25T00:16:40.712Z,20.36
2022-08-25T00:17:40.714Z,20.41
2022-08-25T00:18:40.677Z,20.50
2022-08-25T00:19:40.674Z,20.57
2022-08-25T00:20:40.686Z,20.62
2022-08-25T00:21:40.718Z,20.70
2022-08-25T00:22:40.624Z,20.76
2022-08-25T00:23:40.671Z,20.82
2022-08-25T00:24:40.597Z,20.91
2022-08-25T00:25:40.597Z,20.95
2022-08-25T00:26:40.567Z,20.97
2022-08-25T00:27:40.565Z,20.99
2022-08-25T00:28:40.710Z,20.95
2022-08-25T00:29:40.545Z,20.85
2022-08-25T00:30:40.606Z,20.80
2022-08-25T00:31:40.531Z,20.76
2022-08-25T00:32:40.492Z,20.70
2022-08-25T00:33:40.495Z,20.66
2022-08-25T00:34:40.490Z,20.62
2022-08-25T00:35:40.469Z,20.64
2022-08-25T00:36:40.440Z,20.64
2022-08-25T00:37:40.430Z,20.64
2022-08-25T00:38:40.431Z,20.59
2022-08-25T00:39:40.436Z,20.51
2022-08-25T00:40:40.402Z,20.39
2022-08-25T00:41:40.378Z,20.32
2022-08-25T00:42:40.343Z,20.28
2022-08-25T00:43:40.369Z,20.28
2022-08-25T00:44:40.346Z,20.26
2022-08-25T00:45:40.324Z,20.20
2022-08-25T00:46:40.381Z,20.11
2022-08-25T00:47:41.153Z,20.03
2022-08-25T00:48:40.292Z,19.94
2022-08-25T00:49:40.282Z,19.81
2022-08-25T00:50:40.271Z,19.73
2022-08-25T00:51:40.248Z,19.65
2022-08-25T00:52:40.248Z,19.58
2022-08-25T00:53:40.212Z,19.51
2022-08-25T00:54:40.215Z,19.50
2022-08-25T00:55:40.206Z,19.44
2022-08-25T00:56:40.174Z,19.41
2022-08-25T00:57:40.151Z,19.40
2022-08-25T00:58:40.138Z,19.39
2022-08-25T00:59:40.139Z,19.37
2022-08-25T01:00:40.152Z,19.40
2022-08-25T01:01:40.151Z,19.43
2022-08-25T01:02:40.159Z,19.47
2022-08-25T01:03:40.071Z,19.56
2022-08-25T01:04:40.055Z,19.65
2022-08-25T01:05:40.083Z,19.78
2022-08-25T01:06:40.048Z,19.88
2022-08-25T01:07:40.058Z,19.99
2022-08-25T01:08:40.055Z,20.06
2022-08-25T01:09:39.997Z,20.11
2022-08-25T01:10:40.001Z,20.18
2022-08-25T01:11:39.969Z,20.23
2022-08-25T01:12:39.990Z,20.31
2022-08-25T01:13:39.962Z,20.35
2022-08-25T01:14:39.923Z,20.35
2022-08-25T01:15:39.978Z,20.41
2022-08-25T01:16:39.907Z,20.39
2022-08-25T01:17:39.911Z,20.41
2022-08-25T01:18:39.902Z,20.41
2022-08-25T01:19:39.882Z,20.42
2022-08-25T01:20:39.852Z,20.47
2022-08-25T01:21:39.856Z,20.48
2022-08-25T01:22:39.830Z,20.50
2022-08-25T01:23:39.809Z,20.52
2022-08-25T01:24:39.820Z,20.55
2022-08-25T01:25:39.782Z,20.55
2022-08-25T01:26:39.776Z,20.54
2022-08-25T01:27:39.746Z,20.50
2022-08-25T01:28:39.777Z,20.43
2022-08-25T01:29:39.741Z,20.35
2022-08-25T01:30:39.796Z,20.26
2022-08-25T01:31:39.769Z,20.13
2022-08-25T01:32:39.689Z,20.01
2022-08-25T01:33:39.686Z,19.92
2022-08-25T01:34:39.781Z,19.84
2022-08-25T01:35:39.647Z,19.74
2022-08-25T01:36:39.637Z,19.68
2022-08-25T01:37:39.628Z,19.62
2022-08-25T01:38:39.660Z,19.55
2022-08-25T01:39:39.593Z,19.51
2022-08-25T01:40:39.605Z,19.50
2022-08-25T01:41:39.570Z,19.47
2022-08-25T01:42:39.581Z,19.44
2022-08-25T01:43:39.686Z,19.39
2022-08-25T01:44:39.530Z,19.31
2022-08-25T01:45:39.542Z,19.23
2022-08-25T01:46:39.544Z,19.18
2022-08-25T01:47:39.519Z,19.13
2022-08-25T01:48:39.467Z,19.07
2022-08-25T01:49:39.495Z,19.06
2022-08-25T01:50:39.470Z,19.06
2022-08-25T01:51:39.432Z,19.07
2022-08-25T01:52:39.442Z,19.07
2022-08-25T01:53:39.420Z,19.04
2022-08-25T01:54:39.418Z,19.04
2022-08-25T01:55:39.381Z,19.02
2022-08-25T01:56:39.416Z,19.06
2022-08-25T01:57:39.356Z,19.08
2022-08-25T01:58:39.417Z,19.14
2022-08-25T01:59:39.383Z,19.18
2022-08-25T02:00:39.317Z,19.22
2022-08-25T02:01:39.323Z,19.28
2022-08-25T02:02:42.488Z,19.29
2022-08-25T02:03:42.249Z,19.32
2022-08-25T02:04:39.331Z,19.33
2022-08-25T02:05:39.268Z,19.39
2022-08-25T02:06:39.231Z,19.39
2022-08-25T02:07:39.233Z,19.40
2022-08-25T02:08:39.219Z,19.43
2022-08-25T02:09:39.205Z,19.43
2022-08-25T02:10:39.229Z,19.41
2022-08-25T02:11:39.284Z,19.41
2022-08-25T02:12:39.163Z,19.43
2022-08-25T02:13:39.236Z,19.44
2022-08-25T02:14:39.130Z,19.43
2022-08-25T02:15:39.173Z,19.41
2022-08-25T02:16:39.154Z,19.41
2022-08-25T02:17:39.090Z,19.41
2022-08-25T02:18:39.107Z,19.41
2022-08-25T02:19:39.071Z,19.44
2022-08-25T02:20:39.078Z,19.44
2022-08-25T02:21:39.029Z,19.47
2022-08-25T02:22:39.551Z,19.46
2022-08-25T02:23:39.006Z,19.46
2022-08-25T02:24:38.997Z,19.41
2022-08-25T02:25:39.009Z,19.37
2022-08-25T02:26:38.992Z,19.29
2022-08-25T02:27:38.959Z,19.25
2022-08-25T02:28:38.946Z,19.21
2022-08-25T02:29:38.937Z,19.21
2022-08-25T02:30:39.020Z,19.18
2022-08-25T02:31:38.923Z,19.16
2022-08-25T02:32:38.885Z,19.16
2022-08-25T02:33:38.879Z,19.19
2022-08-25T02:34:38.884Z,19.21
2022-08-25T02:35:38.890Z,19.21
2022-08-25T02:36:38.858Z,19.22
2022-08-25T02:37:38.863Z,19.22
2022-08-25T02:38:38.825Z,19.22
2022-08-25T02:39:39.691Z,19.19
2022-08-25T02:40:38.792Z,19.18
2022-08-25T02:41:38.772Z,19.16
2022-08-25T02:42:38.754Z,19.14
2022-08-25T02:43:38.738Z,19.13
2022-08-25T02:44:38.746Z,19.08
2022-08-25T02:45:38.822Z,19.06
2022-08-25T02:46:38.720Z,19.02
2022-08-25T02:47:38.713Z,19.02
2022-08-25T02:48:38.694Z,19.02
2022-08-25T02:49:38.676Z,19.04
2022-08-25T02:50:38.661Z,19.06
2022-08-25T02:51:38.721Z,19.10
2022-08-25T02:52:38.620Z,19.14
2022-08-25T02:53:38.607Z,19.22
2022-08-25T02:54:38.612Z,19.29
2022-08-25T02:55:38.591Z,19.37
2022-08-25T02:56:38.747Z,19.41
2022-08-25T02:57:38.563Z,19.44
2022-08-25T02:58:38.536Z,19.50
2022-08-25T02:59:38.559Z,19.55
2022-08-25T03:00:38.503Z,19.63
2022-08-25T03:01:38.539Z,19.73
2022-08-25T03:02:38.483Z,19.80
2022-08-25T03:03:39.494Z,19.83
2022-08-25T03:04:38.645Z,19.81
2022-08-25T03:05:38.449Z,19.81
2022-08-25T03:06:38.437Z,19.80
2022-08-25T03:07:38.424Z,19.78
2022-08-25T03:08:38.433Z,19.77
2022-08-25T03:09:38.423Z,19.77
2022-08-25T03:10:38.382Z,19.77
2022-08-25T03:11:38.451Z,19.78
2022-08-25T03:12:38.358Z,19.80
2022-08-25T03:13:38.350Z,19.83
2022-08-25T03:14:38.315Z,19.88
2022-08-25T03:15:38.344Z,19.96
2022-08-25T03:16:38.349Z,20.01
2022-08-25T03:17:38.335Z,20.02
2022-08-25T03:18:38.264Z,20.03
2022-08-25T03:19:38.267Z,20.03
2022-08-25T03:20:38.285Z,20.02
2022-08-25T03:21:38.250Z,20.01
2022-08-25T03:22:38.217Z,19.96
2022-08-25T03:23:38.210Z,19.95
2022-08-25T03:24:38.197Z,19.94
2022-08-25T03:25:38.200Z,19.92
2022-08-25T03:26:38.173Z,19.94
2022-08-25T03:27:38.213Z,19.96
2022-08-25T03:28:38.141Z,20.01
2022-08-25T03:29:38.127Z,20.03
2022-08-25T03:30:38.160Z,20.08
2022-08-25T03:31:38.154Z,20.11
2022-08-25T03:32:38.101Z,20.13
2022-08-25T03:33:38.091Z,20.16
2022-08-25T03:34:38.086Z,20.17
2022-08-25T03:35:38.053Z,20.16
2022-08-25T03:36:38.061Z,20.10
2022-08-25T03:37:38.022Z,20.05
2022-08-25T03:38:38.015Z,19.95
2022-08-25T03:39:38.014Z,19.87
2022-08-25T03:40:38.012Z,19.77
2022-08-25T03:41:38.010Z,19.71
2022-08-25T03:42:39.155Z,19.68
2022-08-25T03:43:37.955Z,19.65
2022-08-25T03:44:37.947Z,19.65
2022-08-25T03:45:37.961Z,19.69
2022-08-25T03:46:37.907Z,19.76
2022-08-25T03:47:37.881Z,19.80
2022-08-25T03:48:37.934Z,19.83
2022-08-25T03:49:37.874Z,19.86
2022-08-25T03:50:37.869Z,19.87
2022-08-25T03:51:37.836Z,19.91
2022-08-25T03:52:41.901Z,19.94
2022-08-25T03:53:37.848Z,19.94
2022-08-25T03:54:37.816Z,19.92
2022-08-25T03:55:37.786Z,19.92
2022-08-25T03:56:37.810Z,19.87
2022-08-25T03:57:37.765Z,19.81
2022-08-25T03:58:37.736Z,19.73
2022-08-25T03:59:37.761Z,19.65
2022-08-25T04:00:37.727Z,19.55
2022-08-25T04:01:37.785Z,19.46
2022-08-25T04:02:37.757Z,19.40
2022-08-25T04:03:37.688Z,19.32
2022-08-25T04:04:37.659Z,19.29
2022-08-25T04:05:37.691Z,19.29
2022-08-25T04:06:37.638Z,19.28
2022-08-25T04:07:37.625Z,19.29
2022-08-25T04:08:37.605Z,19.29
2022-08-25T04:09:37.599Z,19.26
2022-08-25T04:10:37.598Z,19.26
2022-08-25T04:11:37.618Z,19.25
2022-08-25T04:12:37.563Z,19.23
2022-08-25T04:13:37.554Z,19.21
2022-08-25T04:14:37.529Z,19.16
2022-08-25T04:15:37.531Z,19.11
2022-08-25T04:16:37.564Z,19.08
2022-08-25T04:17:37.515Z,19.02
2022-08-25T04:18:37.489Z,18.95
2022-08-25T04:19:37.485Z,18.91
2022-08-25T04:20:37.454Z,18.87
2022-08-25T04:21:37.488Z,18.87
2022-08-25T04:22:37.506Z,18.87
2022-08-25T04:23:37.425Z,18.91
2022-08-25T04:24:37.422Z,18.95
2022-08-25T04:25:37.416Z,19.02
2022-08-25T04:26:37.377Z,19.04
2022-08-25T04:27:37.391Z,19.06
2022-08-25T04:28:37.364Z,19.06
2022-08-25T04:29:37.339Z,19.02
2022-08-25T04:30:37.352Z,18.99
2022-08-25T04:31:37.332Z,18.94
2022-08-25T04:32:37.298Z,18.90
2022-08-25T04:33:37.272Z,18.87
2022-08-25T04:34:37.284Z,18.85
2022-08-25T04:35:37.259Z,18.84
2022-08-25T04:36:37.259Z,18.87
2022-08-25T04:37:37.240Z,18.85
2022-08-25T04:38:37.230Z,18.88
2022-08-25T04:39:37.205Z,18.88
2022-08-25T04:40:37.246Z,18.88
2022-08-25T04:41:37.201Z,18.87
2022-08-25T04:42:37.180Z,18.88
2022-08-25T04:43:37.143Z,18.85
2022-08-25T04:44:37.169Z,18.82
2022-08-25T04:45:37.181Z,18.78
2022-08-25T04:46:37.092Z,18.75
2022-08-25T04:47:37.127Z,18.73
2022-08-25T04:48:37.113Z,18.73
2022-08-25T04:49:37.072Z,18.72
2022-08-25T04:50:37.054Z,18.69
2022-08-25T04:51:37.047Z,18.69
2022-08-25T04:52:37.043Z,18.69
2022-08-25T04:53:37.007Z,18.69
2022-08-25T04:54:37.330Z,18.69
2022-08-25T04:55:37.038Z,18.70
2022-08-25T04:56:37.016Z,18.69
2022-08-25T04:57:36.989Z,18.72
2022-08-25T04:58:36.981Z,18.73
2022-08-25T04:59:36.955Z,18.75
2022-08-25T05:00:36.982Z,18.80
2022-08-25T05:01:36.904Z,18.84
2022-08-25T05:02:36.903Z,18.85
2022-08-25T05:03:36.907Z,18.90
2022-08-25T05:04:36.944Z,18.94
2022-08-25T05:05:36.894Z,19.02
2022-08-25T05:06:36.891Z,19.07
2022-08-25T05:07:36.859Z,19.14
2022-08-25T05:08:36.820Z,19.19
2022-08-25T05:09:36.790Z,19.22
2022-08-25T05:10:36.779Z,19.26
2022-08-25T05:11:36.797Z,19.31
2022-08-25T05:12:36.792Z,19.32
2022-08-25T05:13:36.763Z,19.37
2022-08-25T05:14:36.728Z,19.39
2022-08-25T05:15:36.708Z,19.40
2022-08-25T05:16:36.787Z,19.41
2022-08-25T05:17:36.727Z,19.43
2022-08-25T05:18:36.698Z,19.41
2022-08-25T05:19:36.682Z,19.40
2022-08-25T05:20:36.655Z,19.43
2022-08-25T05:21:36.693Z,19.43
2022-08-25T05:22:36.642Z,19.41
2022-08-25T05:23:36.634Z,19.39
2022-08-25T05:24:36.620Z,19.39
2022-08-25T05:25:36.630Z,19.40
2022-08-25T05:26:36.594Z,19.36
2022-08-25T05:27:36.623Z,19.32
2022-08-25T05:28:36.577Z,19.32
2022-08-25T05:29:36.534Z,19.29
2022-08-25T05:30:36.555Z,19.25
2022-08-25T05:31:41.691Z,19.19
2022-08-25T05:32:36.548Z,19.18
2022-08-25T05:33:36.570Z,19.14
2022-08-25T05:34:36.481Z,19.13
2022-08-25T05:35:36.465Z,19.14
2022-08-25T05:36:36.512Z,19.16
2022-08-25T05:37:36.415Z,19.18
2022-08-25T05:38:36.410Z,19.19
2022-08-25T05:39:36.401Z,19.21
2022-08-25T05:40:36.388Z,19.21
2022-08-25T05:41:36.417Z,19.23
2022-08-25T05:42:36.361Z,19.25
2022-08-25T05:43:36.372Z,19.25
2022-08-25T05:44:37.169Z,19.25
2022-08-25T05:45:36.368Z,19.28
2022-08-25T05:46:36.308Z,19.29
2022-08-25T05:47:36.310Z,19.32
2022-08-25T05:48:36.315Z,19.36
2022-08-25T05:49:36.265Z,19.40
2022-08-25T05:50:36.275Z,19.43
2022-08-25T05:51:36.242Z,19.47
2022-08-25T05:52:36.295Z,19.54
2022-08-25T05:53:36.224Z,19.58
2022-08-25T05:54:36.294Z,19.61
2022-08-25T05:55:36.196Z,19.63
2022-08-25T05:56:36.200Z,19.69
2022-08-25T05:57:36.181Z,19.71
2022-08-25T05:58:36.148Z,19.73
2022-08-25T05:59:36.157Z,19.77
2022-08-25T06:00:36.110Z,19.81
2022-08-25T06:01:36.143Z,19.84
2022-08-25T06:02:36.106Z,19.87
2022-08-25T06:03:36.139Z,19.92
2022-08-25T06:04:38.535Z,19.94
2022-08-25T06:05:36.063Z,19.96
2022-08-25T06:06:36.038Z,20.01
2022-08-25T06:07:36.017Z,20.05
2022-08-25T06:08:36.002Z,20.06
2022-08-25T06:09:36.043Z,20.10
2022-08-25T06:10:35.990Z,20.14
2022-08-25T06:11:35.979Z,20.20
2022-08-25T06:12:36.076Z,20.24
2022-08-25T06:13:35.949Z,20.28
2022-08-25T06:14:35.943Z,20.33
2022-08-25T06:15:35.947Z,20.38
2022-08-25T06:16:35.969Z,20.43
2022-08-25T06:17:35.891Z,20.48
2022-08-25T06:18:35.886Z,20.54
2022-08-25T06:19:35.878Z,20.61
2022-08-25T06:20:35.877Z,20.66
2022-08-25T06:21:35.994Z,20.70
2022-08-25T06:22:35.823Z,20.74
2022-08-25T06:23:35.847Z,20.80
2022-08-25T06:24:35.800Z,20.84
2022-08-25T06:25:35.800Z,20.89
2022-08-25T06:26:35.793Z,20.94
2022-08-25T06:27:35.756Z,20.97
2022-08-25T06:28:35.768Z,21.01
2022-08-25T06:29:35.767Z,21.04
2022-08-25T06:30:35.712Z,21.06
2022-08-25T06:31:35.763Z,21.09
2022-08-25T06:32:35.692Z,21.14
2022-08-25T06:33:35.762Z,21.17
2022-08-25T06:34:35.695Z,21.21
2022-08-25T06:35:35.656Z,21.24
2022-08-25T06:36:35.636Z,21.25
2022-08-25T06:37:35.662Z,21.25
2022-08-25T06:38:35.601Z,21.31
2022-08-25T06:39:35.611Z,21.32
2022-08-25T06:40:35.669Z,21.34
2022-08-25T06:41:37.089Z,21.38
2022-08-25T06:42:35.566Z,21.43
2022-08-25T06:43:35.561Z,21.44
2022-08-25T06:44:35.522Z,21.49
2022-08-25T06:45:35.518Z,21.54
2022-08-25T06:46:36.384Z,21.59
2022-08-25T06:47:35.534Z,21.59
2022-08-25T06:48:35.515Z,21.62
2022-08-25T06:49:36.210Z,21.61
2022-08-25T06:50:35.470Z,21.64
2022-08-25T06:51:35.475Z,21.65
2022-08-25T06:52:35.431Z,21.65
2022-08-25T06:53:35.426Z,21.68
2022-08-25T06:54:35.416Z,21.74
2022-08-25T06:55:35.418Z,21.79
2022-08-25T06:56:35.394Z,21.79
2022-08-25T06:57:35.361Z,21.84
2022-08-25T06:58:35.371Z,21.86
2022-08-25T06:59:35.377Z,21.90
2022-08-25T07:00:35.387Z,21.94
2022-08-25T07:01:35.419Z,21.98
2022-08-25T07:02:35.662Z,22.02
2022-08-25T07:03:35.342Z,22.07
2022-08-25T07:04:35.329Z,22.14
2022-08-25T07:05:43.397Z,22.20
2022-08-25T07:06:35.519Z,22.22
2022-08-25T07:07:43.651Z,22.28
2022-08-25T07:08:35.225Z,22.39
2022-08-25T07:09:38.982Z,22.47
2022-08-25T07:10:35.209Z,22.52
2022-08-25T07:11:35.202Z,22.57
2022-08-25T07:12:35.157Z,22.60
2022-08-25T07:13:35.243Z,22.60
2022-08-25T07:14:35.139Z,22.60
2022-08-25T07:15:35.143Z,22.62
2022-08-25T07:16:35.173Z,22.64
2022-08-25T07:17:35.136Z,22.72
2022-08-25T07:18:35.113Z,22.73
2022-08-25T07:19:35.211Z,22.83
2022-08-25T07:20:35.066Z,22.82
2022-08-25T07:21:35.607Z,22.85
2022-08-25T07:22:35.073Z,22.90
2022-08-25T07:23:35.013Z,22.94
2022-08-25T07:24:35.012Z,22.95
2022-08-25T07:25:34.984Z,22.94
2022-08-25T07:26:37.709Z,22.98
2022-08-25T07:27:35.000Z,23.05
2022-08-25T07:28:34.971Z,23.19
2022-08-25T07:29:34.926Z,23.25
2022-08-25T07:30:34.937Z,23.28
2022-08-25T07:31:35.038Z,23.32
2022-08-25T07:32:34.896Z,23.38
2022-08-25T07:33:34.913Z,23.42
2022-08-25T07:34:34.884Z,23.50
2022-08-25T07:35:37.515Z,23.57
2022-08-25T07:36:34.902Z,23.61
2022-08-25T07:37:50.307Z,23.65
2022-08-25T07:38:34.833Z,23.65
2022-08-25T07:39:34.843Z,23.68
2022-08-25T07:40:34.845Z,23.73
2022-08-25T07:41:34.782Z,23.80
2022-08-25T07:42:34.770Z,23.88
2022-08-25T07:43:34.754Z,23.97
2022-08-25T07:44:34.737Z,24.12
2022-08-25T07:45:34.775Z,24.25
2022-08-25T07:46:34.738Z,24.35
2022-08-25T07:47:34.689Z,24.46
2022-08-25T07:48:34.689Z,24.47
2022-08-25T07:49:35.897Z,24.52
2022-08-25T07:50:34.682Z,24.60
2022-08-25T07:51:34.780Z,24.61
2022-08-25T07:52:34.653Z,24.60
2022-08-25T07:53:35.197Z,24.61
2022-08-25T07:54:35.225Z,24.69
2022-08-25T07:55:34.607Z,24.71
2022-08-25T07:56:34.612Z,24.77
2022-08-25T07:57:34.575Z,24.83
2022-08-25T07:58:34.553Z,24.85
2022-08-25T07:59:38.993Z,24.90
2022-08-25T08:00:34.541Z,24.90
2022-08-25T08:01:34.591Z,24.98
2022-08-25T08:02:34.615Z,25.02
2022-08-25T08:03:50.317Z,25.03
2022-08-25T08:04:34.478Z,25.06
2022-08-25T08:05:34.463Z,25.18
2022-08-25T08:06:34.435Z,25.27
2022-08-25T08:07:43.163Z,25.39
2022-08-25T08:08:34.456Z,25.27
2022-08-25T08:09:34.410Z,25.24
2022-08-25T08:11:34.448Z,25.36
2022-08-25T08:12:34.362Z,25.39
2022-08-25T08:13:38.012Z,25.42
2022-08-25T08:14:34.438Z,25.51
2022-08-25T08:15:34.327Z,25.60
2022-08-25T08:16:34.384Z,25.65
2022-08-25T08:17:34.337Z,25.72
2022-08-25T08:18:34.315Z,25.79
2022-08-25T08:19:34.262Z,25.79
2022-08-25T08:20:42.565Z,25.77
2022-08-25T08:21:34.480Z,25.87
2022-08-25T08:22:34.271Z,25.97
2022-08-25T08:23:34.232Z,25.97
2022-08-25T08:24:44.739Z,25.95
2022-08-25T08:25:34.220Z,26.02
2022-08-25T08:26:55.280Z,26.13
2022-08-25T08:27:34.170Z,26.18
2022-08-25T08:28:34.180Z,26.29
2022-08-25T08:29:34.218Z,26.32
2022-08-25T08:30:34.170Z,26.30
2022-08-25T08:31:34.177Z,26.37
2022-08-25T08:32:53.261Z,26.39
2022-08-25T08:33:34.112Z,26.35
2022-08-25T08:34:34.121Z,26.45
2022-08-25T08:35:34.077Z,26.67
2022-08-25T08:36:34.077Z,26.57
2022-08-25T08:37:34.033Z,26.57
2022-08-25T08:38:34.045Z,26.72
2022-08-25T08:39:34.022Z,26.87
2022-08-25T08:40:34.118Z,26.91
2022-08-25T08:41:48.915Z,26.94
2022-08-25T08:42:33.975Z,26.99
2022-08-25T08:43:33.986Z,27.00
2022-08-25T08:44:33.976Z,26.97
2022-08-25T08:45:35.416Z,27.04
2022-08-25T08:46:34.016Z,27.09
2022-08-25T08:47:33.939Z,27.10
2022-08-25T08:48:33.927Z,27.03
2022-08-25T08:49:33.896Z,27.00
2022-08-25T08:50:34.367Z,27.04
2022-08-25T08:51:33.898Z,27.17
2022-08-25T08:52:33.846Z,27.29
2022-08-25T08:53:34.269Z,27.40
2022-08-25T08:54:34.051Z,27.50
2022-08-25T08:55:33.912Z,27.60
2022-08-25T08:56:33.803Z,27.62
2022-08-25T08:57:33.798Z,27.63
2022-08-25T08:58:33.773Z,27.62
2022-08-25T08:59:33.766Z,27.54
2022-08-25T09:00:33.763Z,27.49
2022-08-25T09:01:33.794Z,27.54
2022-08-25T09:02:39.383Z,27.65
2022-08-25T09:03:33.782Z,27.77
2022-08-25T09:04:33.715Z,27.82
2022-08-25T09:05:37.247Z,27.88
2022-08-25T09:06:33.711Z,27.94
2022-08-25T09:07:33.740Z,28.12
2022-08-25T09:08:33.678Z,28.19
2022-08-25T09:09:35.919Z,28.19
2022-08-25T09:10:33.621Z,28.00
2022-08-25T09:11:33.597Z,27.87
2022-08-25T09:12:33.611Z,27.93
2022-08-25T09:13:33.574Z,28.02
2022-08-25T09:14:33.559Z,28.03
2022-08-25T09:15:40.998Z,28.29
2022-08-25T09:16:34.354Z,28.44
2022-08-25T09:17:33.539Z,28.54
2022-08-25T09:18:35.065Z,28.61
2022-08-25T09:19:33.529Z,28.71
2022-08-25T09:20:33.495Z,28.74
2022-08-25T09:21:33.470Z,28.73
2022-08-25T09:22:36.276Z,28.71
2022-08-25T09:23:33.439Z,28.71
2022-08-25T09:24:33.463Z,28.67
2022-08-25T09:25:53.427Z,28.73
2022-08-25T09:26:33.400Z,28.77
2022-08-25T09:27:33.388Z,28.62
2022-08-25T09:28:33.389Z,28.51
2022-08-25T09:29:33.401Z,28.58
2022-08-25T09:30:33.375Z,28.61
2022-08-25T09:31:33.420Z,28.71
2022-08-25T09:32:33.322Z,28.80
2022-08-25T09:33:34.271Z,28.95
2022-08-25T09:34:33.314Z,29.15
2022-08-25T09:35:33.328Z,29.34
2022-08-25T09:36:37.390Z,29.58
2022-08-25T09:37:33.270Z,29.70
2022-08-25T09:38:33.235Z,29.87
2022-08-25T09:39:33.243Z,29.95
2022-08-25T09:40:33.271Z,30.04
2022-08-25T09:41:33.206Z,29.90
2022-08-25T09:42:33.197Z,29.82
2022-08-25T09:43:33.203Z,29.79
2022-08-25T09:44:33.188Z,29.63
2022-08-25T09:45:33.170Z,29.55
2022-08-25T09:46:33.234Z,29.11
2022-08-25T09:47:33.126Z,28.80
2022-08-25T09:48:36.597Z,28.88
2022-08-25T09:49:33.129Z,29.08
2022-08-25T09:50:34.870Z,29.30
2022-08-25T09:51:38.131Z,29.53
2022-08-25T09:52:33.129Z,29.74
2022-08-25T09:53:33.703Z,29.86
2022-08-25T09:54:43.818Z,29.95
2022-08-25T09:55:33.068Z,30.10
2022-08-25T09:56:33.008Z,30.07
2022-08-25T09:57:33.008Z,30.00
2022-08-25T09:58:32.987Z,30.01
2022-08-25T09:59:35.230Z,29.87
2022-08-25T10:00:32.987Z,29.79
2022-08-25T10:01:34.868Z,29.64
2022-08-25T10:02:32.951Z,29.79
2022-08-25T10:03:36.457Z,29.79
2022-08-25T10:04:32.917Z,29.55
2022-08-25T10:05:33.221Z,29.31
2022-08-25T10:06:32.877Z,29.36
2022-08-25T10:07:32.897Z,29.65
2022-08-25T10:08:32.853Z,29.94
2022-08-25T10:09:32.856Z,30.15
2022-08-25T10:10:32.857Z,30.35
2022-08-25T10:11:32.850Z,30.60
2022-08-25T10:12:32.826Z,30.80
2022-08-25T10:13:32.811Z,30.98
2022-08-25T10:14:32.805Z,30.84
2022-08-25T10:15:32.828Z,30.61
2022-08-25T10:16:35.808Z,30.20
2022-08-25T10:17:33.535Z,29.61
2022-08-25T10:18:32.773Z,29.68
2022-08-25T10:19:32.763Z,29.87
2022-08-25T10:20:35.160Z,29.82
2022-08-25T10:21:32.694Z,29.87
2022-08-25T10:22:32.726Z,30.04
2022-08-25T10:23:32.667Z,30.20
2022-08-25T10:24:32.680Z,30.31
2022-08-25T10:25:32.623Z,30.15
2022-08-25T10:26:34.784Z,29.97
2022-08-25T10:27:32.623Z,29.73
2022-08-25T10:28:32.614Z,29.48
2022-08-25T10:29:32.790Z,29.23
2022-08-25T10:30:32.605Z,29.30
2022-08-25T10:31:33.086Z,29.48
2022-08-25T10:32:32.549Z,29.52
2022-08-25T10:33:32.752Z,29.68
2022-08-25T10:34:32.514Z,29.82
2022-08-25T10:35:32.521Z,29.87
2022-08-25T10:36:32.491Z,29.87
2022-08-25T10:37:32.673Z,29.89
2022-08-25T10:38:36.202Z,29.89
2022-08-25T10:39:36.496Z,29.92
2022-08-25T10:40:32.547Z,29.68
2022-08-25T10:41:32.443Z,29.60
2022-08-25T10:42:32.476Z,29.73
2022-08-25T10:43:32.421Z,29.90
2022-08-25T10:44:32.427Z,30.08
2022-08-25T10:45:32.475Z,30.24
2022-08-25T10:46:32.427Z,30.38
2022-08-25T10:47:32.357Z,30.53
2022-08-25T10:48:32.371Z,30.61
2022-08-25T10:49:32.327Z,30.49
2022-08-25T10:50:32.407Z,30.35
2022-08-25T10:51:32.306Z,30.24
2022-08-25T10:52:32.298Z,30.20
2022-08-25T10:53:32.335Z,30.17
2022-08-25T10:54:32.417Z,29.79
2022-08-25T10:55:32.254Z,29.63
2022-08-25T10:56:32.484Z,29.68
2022-08-25T10:57:32.222Z,29.70
2022-08-25T10:58:32.270Z,29.78
2022-08-25T10:59:32.229Z,30.00
2022-08-25T11:00:33.261Z,30.16
2022-08-25T11:01:38.946Z,30.27
2022-08-25T11:02:32.235Z,30.46
2022-08-25T11:03:35.371Z,30.46
2022-08-25T11:04:32.165Z,30.42
2022-08-25T11:05:32.274Z,30.45
2022-08-25T11:06:32.099Z,30.45
2022-08-25T11:07:32.162Z,30.49
2022-08-25T11:08:32.107Z,30.46
2022-08-25T11:09:32.174Z,30.01
2022-08-25T11:10:32.062Z,29.78
2022-08-25T11:11:32.040Z,29.83
2022-08-25T11:12:32.020Z,30.16
2022-08-25T11:13:32.045Z,30.31
2022-08-25T11:14:34.534Z,30.53
2022-08-25T11:15:32.159Z,30.72
2022-08-25T11:16:32.040Z,30.84
2022-08-25T11:17:31.944Z,30.97
2022-08-25T11:18:31.953Z,31.07
2022-08-25T11:19:32.734Z,31.09
2022-08-25T11:20:31.960Z,30.91
2022-08-25T11:21:31.914Z,30.62
2022-08-25T11:22:31.919Z,30.51
2022-08-25T11:23:31.898Z,30.47
2022-08-25T11:24:31.871Z,30.60
2022-08-25T11:25:31.891Z,30.38
2022-08-25T11:26:34.918Z,30.23
2022-08-25T11:27:31.859Z,30.31
2022-08-25T11:28:31.816Z,30.27
2022-08-25T11:29:31.801Z,30.34
2022-08-25T11:30:31.854Z,30.51
2022-08-25T11:31:31.789Z,30.53
2022-08-25T11:32:31.769Z,30.57
2022-08-25T11:33:31.758Z,30.47
2022-08-25T11:34:31.766Z,30.55
2022-08-25T11:35:31.742Z,30.67
2022-08-25T11:36:31.726Z,30.84
2022-08-25T11:37:31.699Z,30.75
2022-08-25T11:38:31.710Z,30.39
2022-08-25T11:39:34.518Z,30.23
2022-08-25T11:40:31.723Z,30.26
2022-08-25T11:41:31.639Z,30.31
2022-08-25T11:42:31.649Z,30.31
2022-08-25T11:43:31.623Z,30.32
2022-08-25T11:44:31.660Z,30.43
2022-08-25T11:45:31.600Z,30.61
2022-08-25T11:46:31.621Z,30.65
2022-08-25T11:47:31.563Z,30.73
2022-08-25T11:48:31.652Z,30.69
2022-08-25T11:49:31.572Z,30.67
2022-08-25T11:50:31.538Z,30.82
2022-08-25T11:51:33.839Z,30.95
2022-08-25T11:52:32.200Z,31.02
2022-08-25T11:53:31.511Z,30.88
2022-08-25T11:54:31.479Z,30.70
2022-08-25T11:55:31.533Z,30.58
2022-08-25T11:56:31.492Z,30.47
2022-08-25T11:57:31.447Z,30.37
2022-08-25T11:58:31.476Z,30.29
2022-08-25T11:59:31.413Z,30.42
2022-08-25T12:00:31.409Z,30.47
2022-08-25T12:01:31.409Z,30.38
2022-08-25T12:02:31.394Z,30.46
2022-08-25T12:03:31.472Z,30.75
2022-08-25T12:04:31.485Z,31.04
2022-08-25T12:05:31.381Z,31.32
2022-08-25T12:06:31.353Z,31.43
2022-08-25T12:07:31.339Z,31.32
2022-08-25T12:08:31.292Z,31.32
2022-08-25T12:09:31.320Z,31.32
2022-08-25T12:10:31.323Z,31.34
2022-08-25T12:11:31.284Z,31.17
2022-08-25T12:12:31.255Z,31.13
2022-08-25T12:13:31.284Z,31.04
2022-08-25T12:14:31.267Z,31.10
2022-08-25T12:15:31.226Z,31.06
2022-08-25T12:16:31.315Z,31.09
2022-08-25T12:17:31.190Z,31.04
2022-08-25T12:18:31.173Z,30.99
2022-08-25T12:19:31.642Z,31.09
2022-08-25T12:20:31.151Z,31.23
2022-08-25T12:21:31.128Z,31.38
2022-08-25T12:22:31.128Z,31.50
2022-08-25T12:23:31.102Z,31.63
2022-08-25T12:24:31.169Z,31.63
2022-08-25T12:25:31.099Z,31.68
2022-08-25T12:26:31.074Z,31.68
2022-08-25T12:27:34.076Z,31.65
2022-08-25T12:28:35.048Z,31.54
2022-08-25T12:29:31.022Z,31.41
2022-08-25T12:30:31.263Z,31.23
2022-08-25T12:31:31.003Z,31.17
2022-08-25T12:32:31.004Z,31.32
2022-08-25T12:33:31.024Z,31.38
2022-08-25T12:34:30.953Z,31.35
2022-08-25T12:35:30.946Z,31.32
2022-08-25T12:36:30.956Z,31.35
2022-08-25T12:37:30.935Z,31.47
2022-08-25T12:38:30.933Z,31.62
2022-08-25T12:39:30.897Z,31.72
2022-08-25T12:40:30.969Z,31.76
2022-08-25T12:41:31.245Z,31.81
2022-08-25T12:42:30.879Z,31.84
2022-08-25T12:43:37.215Z,31.76
2022-08-25T12:44:30.951Z,31.41
2022-08-25T12:45:30.822Z,30.99
2022-08-25T12:46:30.895Z,30.83
2022-08-25T12:47:30.855Z,30.84
2022-08-25T12:48:30.773Z,30.91
2022-08-25T12:49:30.805Z,30.88
2022-08-25T12:50:30.999Z,30.83
2022-08-25T12:51:30.757Z,30.92
2022-08-25T12:52:30.755Z,30.99
2022-08-25T12:53:30.727Z,31.02